sensor_id;sensor_type;location;lat;lon;timestamp;temperature;humidity
17659;DHT22;8948;51.534;8.262;2023-04-05T00:02:42;5.50;49.20
17659;DHT22;8948;51.534;8.262;2023-04-05T00:07:43;5.40;49.20
17659;DHT22;8948;51.534;8.262;2023-04-05T00:12:47;5.30;49.80
17659;DHT22;8948;51.534;8.262;2023-04-05T00:17:48;5.30;50.00
17659;DHT22;8948;51.534;8.262;2023-04-05T00:22:48;5.40;50.10
17659;DHT22;8948;51.534;8.262;2023-04-05T00:27:49;5.20;50.60
17659;DHT22;8948;51.534;8.262;2023-04-05T00:32:50;5.20;50.70
17659;DHT22;8948;51.534;8.262;2023-04-05T00:37:51;5.20;50.70
17659;DHT22;8948;51.534;8.262;2023-04-05T00:42:51;5.10;51.40
17659;DHT22;8948;51.534;8.262;2023-04-05T00:47:52;5.00;51.70
17659;DHT22;8948;51.534;8.262;2023-04-05T00:52:52;4.90;51.70
17659;DHT22;8948;51.534;8.262;2023-04-05T00:57:54;4.80;52.00
17659;DHT22;8948;51.534;8.262;2023-04-05T01:02:57;4.90;51.70
17659;DHT22;8948;51.534;8.262;2023-04-05T01:13:07;4.60;52.30
17659;DHT22;8948;51.534;8.262;2023-04-05T01:18:08;4.60;52.30
17659;DHT22;8948;51.534;8.262;2023-04-05T01:23:18;4.50;52.50
17659;DHT22;8948;51.534;8.262;2023-04-05T01:34:01;4.30;53.20
17659;DHT22;8948;51.534;8.262;2023-04-05T01:39:08;4.10;53.80
17659;DHT22;8948;51.534;8.262;2023-04-05T01:44:10;3.90;54.20
17659;DHT22;8948;51.534;8.262;2023-04-05T01:49:11;4.00;54.40
17659;DHT22;8948;51.534;8.262;2023-04-05T01:54:12;4.00;54.10
17659;DHT22;8948;51.534;8.262;2023-04-05T01:59:12;3.80;54.40
17659;DHT22;8948;51.534;8.262;2023-04-05T02:04:13;3.80;54.60
17659;DHT22;8948;51.534;8.262;2023-04-05T02:09:13;3.80;54.30
17659;DHT22;8948;51.534;8.262;2023-04-05T02:14:14;3.70;54.60
17659;DHT22;8948;51.534;8.262;2023-04-05T02:19:14;3.70;54.80
17659;DHT22;8948;51.534;8.262;2023-04-05T02:24:15;3.60;55.00
17659;DHT22;8948;51.534;8.262;2023-04-05T02:29:15;3.50;55.10
17659;DHT22;8948;51.534;8.262;2023-04-05T02:34:16;3.40;55.10
17659;DHT22;8948;51.534;8.262;2023-04-05T02:39:17;3.40;55.20
17659;DHT22;8948;51.534;8.262;2023-04-05T02:44:17;3.30;55.70
17659;DHT22;8948;51.534;8.262;2023-04-05T02:49:18;3.30;55.50
17659;DHT22;8948;51.534;8.262;2023-04-05T02:54:18;3.20;55.90
17659;DHT22;8948;51.534;8.262;2023-04-05T02:59:19;3.10;56.40
17659;DHT22;8948;51.534;8.262;2023-04-05T03:04:21;3.00;56.40
17659;DHT22;8948;51.534;8.262;2023-04-05T03:09:21;3.00;56.70
17659;DHT22;8948;51.534;8.262;2023-04-05T03:14:22;3.00;56.40
17659;DHT22;8948;51.534;8.262;2023-04-05T03:19:24;2.90;56.20
17659;DHT22;8948;51.534;8.262;2023-04-05T03:24:25;2.80;56.40
17659;DHT22;8948;51.534;8.262;2023-04-05T03:29:26;2.80;56.10
17659;DHT22;8948;51.534;8.262;2023-04-05T03:34:26;2.80;56.10
17659;DHT22;8948;51.534;8.262;2023-04-05T03:39:28;2.70;56.50
17659;DHT22;8948;51.534;8.262;2023-04-05T03:44:28;2.70;56.70
17659;DHT22;8948;51.534;8.262;2023-04-05T03:49:29;2.60;56.80
17659;DHT22;8948;51.534;8.262;2023-04-05T03:54:30;2.60;56.70
17659;DHT22;8948;51.534;8.262;2023-04-05T03:59:30;2.50;56.40
17659;DHT22;8948;51.534;8.262;2023-04-05T04:04:31;2.50;56.80
17659;DHT22;8948;51.534;8.262;2023-04-05T04:09:31;2.40;57.10
17659;DHT22;8948;51.534;8.262;2023-04-05T04:14:34;2.30;57.30
17659;DHT22;8948;51.534;8.262;2023-04-05T04:19:34;2.30;57.10
17659;DHT22;8948;51.534;8.262;2023-04-05T04:24:35;2.20;57.30
17659;DHT22;8948;51.534;8.262;2023-04-05T04:29:36;2.20;57.30
17659;DHT22;8948;51.534;8.262;2023-04-05T04:34:38;2.20;57.30
17659;DHT22;8948;51.534;8.262;2023-04-05T04:39:44;2.20;57.40
17659;DHT22;8948;51.534;8.262;2023-04-05T04:44:46;2.10;57.30
17659;DHT22;8948;51.534;8.262;2023-04-05T04:49:47;2.10;57.50
17659;DHT22;8948;51.534;8.262;2023-04-05T04:54:48;2.40;76.30
17659;DHT22;8948;51.534;8.262;2023-04-05T04:59:50;3.00;68.30
17659;DHT22;8948;51.534;8.262;2023-04-05T05:04:50;2.80;58.80
17659;DHT22;8948;51.534;8.262;2023-04-05T05:09:51;2.50;57.70
17659;DHT22;8948;51.534;8.262;2023-04-05T05:14:53;2.40;57.70
17659;DHT22;8948;51.534;8.262;2023-04-05T05:19:54;2.30;57.80
17659;DHT22;8948;51.534;8.262;2023-04-05T05:24:54;2.20;58.20
17659;DHT22;8948;51.534;8.262;2023-04-05T05:29:55;2.30;58.40
17659;DHT22;8948;51.534;8.262;2023-04-05T05:34:56;2.20;58.60
17659;DHT22;8948;51.534;8.262;2023-04-05T05:39:56;2.20;58.60
17659;DHT22;8948;51.534;8.262;2023-04-05T05:45:03;2.30;58.50
17659;DHT22;8948;51.534;8.262;2023-04-05T05:50:04;2.40;58.50
17659;DHT22;8948;51.534;8.262;2023-04-05T05:55:06;2.40;58.10
17659;DHT22;8948;51.534;8.262;2023-04-05T06:00:06;2.60;58.40
17659;DHT22;8948;51.534;8.262;2023-04-05T06:05:11;2.60;57.70
17659;DHT22;8948;51.534;8.262;2023-04-05T06:10:12;2.70;57.60
17659;DHT22;8948;51.534;8.262;2023-04-05T06:15:13;2.90;57.60
17659;DHT22;8948;51.534;8.262;2023-04-05T06:20:14;3.10;57.10
17659;DHT22;8948;51.534;8.262;2023-04-05T06:25:14;3.30;56.90
17659;DHT22;8948;51.534;8.262;2023-04-05T06:30:15;3.50;56.40
17659;DHT22;8948;51.534;8.262;2023-04-05T06:35:16;3.70;55.90
17659;DHT22;8948;51.534;8.262;2023-04-05T06:40:17;3.80;55.40
17659;DHT22;8948;51.534;8.262;2023-04-05T06:45:18;4.00;55.60
17659;DHT22;8948;51.534;8.262;2023-04-05T06:50:19;4.20;55.40
17659;DHT22;8948;51.534;8.262;2023-04-05T06:55:20;4.40;54.50
17659;DHT22;8948;51.534;8.262;2023-04-05T07:00:21;4.60;54.40
17659;DHT22;8948;51.534;8.262;2023-04-05T07:05:21;4.80;54.90
17659;DHT22;8948;51.534;8.262;2023-04-05T07:10:22;5.00;53.80
17659;DHT22;8948;51.534;8.262;2023-04-05T07:15:23;5.20;52.80
17659;DHT22;8948;51.534;8.262;2023-04-05T07:20:23;5.50;51.60
17659;DHT22;8948;51.534;8.262;2023-04-05T07:25:24;5.70;51.30
17659;DHT22;8948;51.534;8.262;2023-04-05T07:30:26;5.90;50.30
17659;DHT22;8948;51.534;8.262;2023-04-05T07:35:26;6.10;50.50
17659;DHT22;8948;51.534;8.262;2023-04-05T07:40:27;6.30;48.60
17659;DHT22;8948;51.534;8.262;2023-04-05T07:45:28;6.70;49.00
17659;DHT22;8948;51.534;8.262;2023-04-05T07:50:29;6.70;46.80
17659;DHT22;8948;51.534;8.262;2023-04-05T07:55:29;6.90;47.00
17659;DHT22;8948;51.534;8.262;2023-04-05T08:00:30;7.20;46.10
17659;DHT22;8948;51.534;8.262;2023-04-05T08:05:30;7.40;46.20
17659;DHT22;8948;51.534;8.262;2023-04-05T08:10:31;7.60;45.50
17659;DHT22;8948;51.534;8.262;2023-04-05T08:15:32;7.80;44.60
17659;DHT22;8948;51.534;8.262;2023-04-05T08:20:33;7.90;44.70
17659;DHT22;8948;51.534;8.262;2023-04-05T08:25:38;8.10;43.70
17659;DHT22;8948;51.534;8.262;2023-04-05T08:30:39;8.40;44.20
17659;DHT22;8948;51.534;8.262;2023-04-05T08:35:40;8.70;43.30
17659;DHT22;8948;51.534;8.262;2023-04-05T08:40:46;8.80;42.10
17659;DHT22;8948;51.534;8.262;2023-04-05T08:45:49;9.30;44.80
17659;DHT22;8948;51.534;8.262;2023-04-05T08:50:53;9.40;42.10
17659;DHT22;8948;51.534;8.262;2023-04-05T08:55:55;9.50;39.20
17659;DHT22;8948;51.534;8.262;2023-04-05T09:00:56;9.50;41.60
17659;DHT22;8948;51.534;8.262;2023-04-05T09:05:58;9.90;39.90
17659;DHT22;8948;51.534;8.262;2023-04-05T09:10:59;10.10;38.70
17659;DHT22;8948;51.534;8.262;2023-04-05T09:16:00;10.20;39.10
17659;DHT22;8948;51.534;8.262;2023-04-05T09:21:03;10.60;39.80
17659;DHT22;8948;51.534;8.262;2023-04-05T09:26:22;10.80;42.30
17659;DHT22;8948;51.534;8.262;2023-04-05T09:31:34;11.20;41.90
17659;DHT22;8948;51.534;8.262;2023-04-05T09:36:35;11.40;39.60
17659;DHT22;8948;51.534;8.262;2023-04-05T09:42:09;11.30;39.40
17659;DHT22;8948;51.534;8.262;2023-04-05T09:47:18;11.60;35.90
17659;DHT22;8948;51.534;8.262;2023-04-05T09:52:23;11.60;39.50
17659;DHT22;8948;51.534;8.262;2023-04-05T09:57:25;11.70;39.70
17659;DHT22;8948;51.534;8.262;2023-04-05T10:02:35;11.90;40.60
17659;DHT22;8948;51.534;8.262;2023-04-05T10:07:36;11.80;37.50
17659;DHT22;8948;51.534;8.262;2023-04-05T10:12:39;12.00;37.70
17659;DHT22;8948;51.534;8.262;2023-04-05T10:17:59;12.20;39.20
17659;DHT22;8948;51.534;8.262;2023-04-05T10:23:09;12.50;35.90
17659;DHT22;8948;51.534;8.262;2023-04-05T10:33:45;12.80;40.10
17659;DHT22;8948;51.534;8.262;2023-04-05T10:39:06;12.90;37.30
17659;DHT22;8948;51.534;8.262;2023-04-05T10:44:10;13.10;35.70
17659;DHT22;8948;51.534;8.262;2023-04-05T10:49:19;13.30;37.60
17659;DHT22;8948;51.534;8.262;2023-04-05T10:54:22;13.60;40.30
17659;DHT22;8948;51.534;8.262;2023-04-05T10:59:23;13.90;37.80
17659;DHT22;8948;51.534;8.262;2023-04-05T11:04:25;14.00;37.50
17659;DHT22;8948;51.534;8.262;2023-04-05T11:09:26;14.30;38.10
17659;DHT22;8948;51.534;8.262;2023-04-05T11:14:35;14.50;38.30
17659;DHT22;8948;51.534;8.262;2023-04-05T11:24:50;14.70;37.10
17659;DHT22;8948;51.534;8.262;2023-04-05T11:29:57;14.60;36.30
17659;DHT22;8948;51.534;8.262;2023-04-05T11:35:01;14.70;38.00
17659;DHT22;8948;51.534;8.262;2023-04-05T11:40:33;14.90;36.10
17659;DHT22;8948;51.534;8.262;2023-04-05T11:45:35;14.90;36.30
17659;DHT22;8948;51.534;8.262;2023-04-05T11:50:37;15.00;36.50
17659;DHT22;8948;51.534;8.262;2023-04-05T11:55:39;15.40;37.70
17659;DHT22;8948;51.534;8.262;2023-04-05T12:00:41;15.60;35.40
17659;DHT22;8948;51.534;8.262;2023-04-05T12:05:46;15.50;35.30
17659;DHT22;8948;51.534;8.262;2023-04-05T12:15:59;15.70;36.10
17659;DHT22;8948;51.534;8.262;2023-04-05T12:21:06;15.80;35.00
17659;DHT22;8948;51.534;8.262;2023-04-05T12:26:07;16.10;36.50
17659;DHT22;8948;51.534;8.262;2023-04-05T12:31:09;16.00;34.80
17659;DHT22;8948;51.534;8.262;2023-04-05T12:36:13;16.40;35.60
17659;DHT22;8948;51.534;8.262;2023-04-05T12:41:14;16.40;34.00
17659;DHT22;8948;51.534;8.262;2023-04-05T12:46:16;16.50;34.90
17659;DHT22;8948;51.534;8.262;2023-04-05T12:51:16;16.30;35.50
17659;DHT22;8948;51.534;8.262;2023-04-05T12:56:17;16.20;35.40
17659;DHT22;8948;51.534;8.262;2023-04-05T13:01:18;16.50;33.50
17659;DHT22;8948;51.534;8.262;2023-04-05T13:06:18;17.00;35.40
17659;DHT22;8948;51.534;8.262;2023-04-05T13:11:19;17.10;34.10
17659;DHT22;8948;51.534;8.262;2023-04-05T13:16:19;17.30;33.40
17659;DHT22;8948;51.534;8.262;2023-04-05T13:21:20;16.90;33.70
17659;DHT22;8948;51.534;8.262;2023-04-05T13:26:21;17.00;36.20
17659;DHT22;8948;51.534;8.262;2023-04-05T13:31:21;17.30;32.90
17659;DHT22;8948;51.534;8.262;2023-04-05T13:36:22;17.20;34.20
17659;DHT22;8948;51.534;8.262;2023-04-05T13:41:22;17.50;33.90
17659;DHT22;8948;51.534;8.262;2023-04-05T13:46:23;17.60;33.90
17659;DHT22;8948;51.534;8.262;2023-04-05T13:51:23;17.30;32.00
17659;DHT22;8948;51.534;8.262;2023-04-05T13:56:24;17.90;33.40
17659;DHT22;8948;51.534;8.262;2023-04-05T14:01:25;17.80;32.10
17659;DHT22;8948;51.534;8.262;2023-04-05T14:06:26;18.10;32.40
17659;DHT22;8948;51.534;8.262;2023-04-05T14:11:27;17.60;32.90
17659;DHT22;8948;51.534;8.262;2023-04-05T14:16:28;18.10;32.30
17659;DHT22;8948;51.534;8.262;2023-04-05T14:21:29;18.10;32.00
17659;DHT22;8948;51.534;8.262;2023-04-05T14:26:30;18.10;32.40
17659;DHT22;8948;51.534;8.262;2023-04-05T14:31:31;18.00;32.40
17659;DHT22;8948;51.534;8.262;2023-04-05T14:36:31;18.00;32.00
17659;DHT22;8948;51.534;8.262;2023-04-05T14:41:32;18.40;32.10
17659;DHT22;8948;51.534;8.262;2023-04-05T14:46:34;18.70;32.20
17659;DHT22;8948;51.534;8.262;2023-04-05T14:51:34;18.90;31.40
17659;DHT22;8948;51.534;8.262;2023-04-05T14:56:35;18.90;30.80
17659;DHT22;8948;51.534;8.262;2023-04-05T15:01:36;18.50;31.40
17659;DHT22;8948;51.534;8.262;2023-04-05T15:06:37;18.20;31.30
17659;DHT22;8948;51.534;8.262;2023-04-05T15:11:37;18.50;31.70
17659;DHT22;8948;51.534;8.262;2023-04-05T15:16:39;18.50;31.70
17659;DHT22;8948;51.534;8.262;2023-04-05T15:21:40;18.40;31.90
17659;DHT22;8948;51.534;8.262;2023-04-05T15:26:42;18.40;31.60
17659;DHT22;8948;51.534;8.262;2023-04-05T15:31:42;18.40;32.20
17659;DHT22;8948;51.534;8.262;2023-04-05T15:36:43;18.40;31.30
17659;DHT22;8948;51.534;8.262;2023-04-05T15:41:43;18.30;30.40
17659;DHT22;8948;51.534;8.262;2023-04-05T15:46:45;18.30;31.40
17659;DHT22;8948;51.534;8.262;2023-04-05T15:51:45;18.40;31.20
17659;DHT22;8948;51.534;8.262;2023-04-05T15:56:46;18.20;30.60
17659;DHT22;8948;51.534;8.262;2023-04-05T16:01:47;18.10;31.80
17659;DHT22;8948;51.534;8.262;2023-04-05T16:06:47;18.10;31.50
17659;DHT22;8948;51.534;8.262;2023-04-05T16:11:48;18.10;32.00
17659;DHT22;8948;51.534;8.262;2023-04-05T16:16:48;17.80;31.40
17659;DHT22;8948;51.534;8.262;2023-04-05T16:21:50;17.60;31.60
17659;DHT22;8948;51.534;8.262;2023-04-05T16:26:52;17.60;32.30
17659;DHT22;8948;51.534;8.262;2023-04-05T16:31:53;17.60;32.30
17659;DHT22;8948;51.534;8.262;2023-04-05T16:36:53;17.40;31.50
17659;DHT22;8948;51.534;8.262;2023-04-05T16:41:54;17.30;32.10
17659;DHT22;8948;51.534;8.262;2023-04-05T16:46:55;16.90;31.70
17659;DHT22;8948;51.534;8.262;2023-04-05T16:51:56;16.40;31.60
17659;DHT22;8948;51.534;8.262;2023-04-05T16:56:56;16.40;32.70
17659;DHT22;8948;51.534;8.262;2023-04-05T17:01:57;15.90;32.30
17659;DHT22;8948;51.534;8.262;2023-04-05T17:06:58;15.90;33.70
17659;DHT22;8948;51.534;8.262;2023-04-05T17:11:59;15.70;34.50
17659;DHT22;8948;51.534;8.262;2023-04-05T17:17:00;15.40;35.20
17659;DHT22;8948;51.534;8.262;2023-04-05T17:22:00;15.20;35.40
17659;DHT22;8948;51.534;8.262;2023-04-05T17:27:02;14.90;35.30
17659;DHT22;8948;51.534;8.262;2023-04-05T17:32:03;14.80;35.50
17659;DHT22;8948;51.534;8.262;2023-04-05T17:37:03;14.60;34.60
17659;DHT22;8948;51.534;8.262;2023-04-05T17:42:04;14.40;35.60
17659;DHT22;8948;51.534;8.262;2023-04-05T17:47:04;14.20;36.00
17659;DHT22;8948;51.534;8.262;2023-04-05T17:52:05;14.00;35.90
17659;DHT22;8948;51.534;8.262;2023-04-05T17:57:09;13.90;36.00
17659;DHT22;8948;51.534;8.262;2023-04-05T18:02:16;13.70;37.00
17659;DHT22;8948;51.534;8.262;2023-04-05T18:07:16;13.40;36.50
17659;DHT22;8948;51.534;8.262;2023-04-05T18:12:17;13.30;37.70
17659;DHT22;8948;51.534;8.262;2023-04-05T18:17:17;13.00;37.70
17659;DHT22;8948;51.534;8.262;2023-04-05T18:22:19;12.90;38.40
17659;DHT22;8948;51.534;8.262;2023-04-05T18:27:20;12.60;38.70
17659;DHT22;8948;51.534;8.262;2023-04-05T18:32:20;12.40;38.80
17659;DHT22;8948;51.534;8.262;2023-04-05T18:37:21;12.20;39.30
17659;DHT22;8948;51.534;8.262;2023-04-05T18:42:23;11.90;39.70
17659;DHT22;8948;51.534;8.262;2023-04-05T18:47:23;11.80;39.90
17659;DHT22;8948;51.534;8.262;2023-04-05T18:52:24;11.50;40.30
17659;DHT22;8948;51.534;8.262;2023-04-05T18:57:27;11.40;40.90
17659;DHT22;8948;51.534;8.262;2023-04-05T19:02:29;11.20;40.60
17659;DHT22;8948;51.534;8.262;2023-04-05T19:07:30;11.00;41.60
17659;DHT22;8948;51.534;8.262;2023-04-05T19:12:30;10.80;41.30
17659;DHT22;8948;51.534;8.262;2023-04-05T19:17:31;10.60;42.20
17659;DHT22;8948;51.534;8.262;2023-04-05T19:22:32;10.40;42.40
17659;DHT22;8948;51.534;8.262;2023-04-05T19:27:32;10.20;42.80
17659;DHT22;8948;51.534;8.262;2023-04-05T19:32:34;10.00;42.80
17659;DHT22;8948;51.534;8.262;2023-04-05T19:37:35;10.00;43.00
17659;DHT22;8948;51.534;8.262;2023-04-05T19:42:35;9.90;43.30
17659;DHT22;8948;51.534;8.262;2023-04-05T19:47:46;9.80;43.40
17659;DHT22;8948;51.534;8.262;2023-04-05T19:52:47;9.70;43.60
17659;DHT22;8948;51.534;8.262;2023-04-05T19:57:48;9.60;43.70
17659;DHT22;8948;51.534;8.262;2023-04-05T20:02:49;9.50;43.90
17659;DHT22;8948;51.534;8.262;2023-04-05T20:07:50;9.40;43.60
17659;DHT22;8948;51.534;8.262;2023-04-05T20:12:50;9.30;43.80
17659;DHT22;8948;51.534;8.262;2023-04-05T20:17:52;9.20;42.50
17659;DHT22;8948;51.534;8.262;2023-04-05T20:22:53;9.20;42.80
17659;DHT22;8948;51.534;8.262;2023-04-05T20:27:54;9.20;43.10
17659;DHT22;8948;51.534;8.262;2023-04-05T20:32:55;9.20;43.20
17659;DHT22;8948;51.534;8.262;2023-04-05T20:37:55;9.10;42.50
17659;DHT22;8948;51.534;8.262;2023-04-05T20:42:56;9.10;42.60
17659;DHT22;8948;51.534;8.262;2023-04-05T20:47:57;9.00;43.00
17659;DHT22;8948;51.534;8.262;2023-04-05T20:52:57;8.90;42.50
17659;DHT22;8948;51.534;8.262;2023-04-05T20:57:58;8.80;42.50
17659;DHT22;8948;51.534;8.262;2023-04-05T21:02:58;8.70;42.40
17659;DHT22;8948;51.534;8.262;2023-04-05T21:07:59;8.50;42.60
17659;DHT22;8948;51.534;8.262;2023-04-05T21:13:00;8.40;43.10
17659;DHT22;8948;51.534;8.262;2023-04-05T21:18:01;8.20;43.50
17659;DHT22;8948;51.534;8.262;2023-04-05T21:23:03;8.10;43.80
17659;DHT22;8948;51.534;8.262;2023-04-05T21:28:04;7.90;44.20
17659;DHT22;8948;51.534;8.262;2023-04-05T21:33:05;8.00;43.80
17659;DHT22;8948;51.534;8.262;2023-04-05T21:38:05;7.90;43.70
17659;DHT22;8948;51.534;8.262;2023-04-05T21:43:06;7.80;43.60
17659;DHT22;8948;51.534;8.262;2023-04-05T21:48:07;7.70;43.10
17659;DHT22;8948;51.534;8.262;2023-04-05T21:53:07;7.60;43.40
17659;DHT22;8948;51.534;8.262;2023-04-05T21:58:09;7.60;43.70
17659;DHT22;8948;51.534;8.262;2023-04-05T22:03:09;7.50;44.20
17659;DHT22;8948;51.534;8.262;2023-04-05T22:08:10;7.60;44.20
17659;DHT22;8948;51.534;8.262;2023-04-05T22:13:11;7.50;44.20
17659;DHT22;8948;51.534;8.262;2023-04-05T22:18:12;7.60;44.40
17659;DHT22;8948;51.534;8.262;2023-04-05T22:23:12;7.50;44.00
17659;DHT22;8948;51.534;8.262;2023-04-05T22:28:13;7.40;44.50
17659;DHT22;8948;51.534;8.262;2023-04-05T22:33:13;7.30;44.60
17659;DHT22;8948;51.534;8.262;2023-04-05T22:38:14;7.30;44.70
17659;DHT22;8948;51.534;8.262;2023-04-05T22:43:15;7.20;44.90
17659;DHT22;8948;51.534;8.262;2023-04-05T22:48:15;7.10;45.30
17659;DHT22;8948;51.534;8.262;2023-04-05T22:53:16;6.80;45.80
17659;DHT22;8948;51.534;8.262;2023-04-05T22:58:16;6.70;46.30
17659;DHT22;8948;51.534;8.262;2023-04-05T23:03:18;6.50;46.70
17659;DHT22;8948;51.534;8.262;2023-04-05T23:08:20;6.50;46.70
17659;DHT22;8948;51.534;8.262;2023-04-05T23:13:20;6.30;47.60
17659;DHT22;8948;51.534;8.262;2023-04-05T23:18:21;6.20;47.80
17659;DHT22;8948;51.534;8.262;2023-04-05T23:23:22;6.20;47.80
17659;DHT22;8948;51.534;8.262;2023-04-05T23:28:22;6.20;47.40
17659;DHT22;8948;51.534;8.262;2023-04-05T23:33:23;6.10;47.40
17659;DHT22;8948;51.534;8.262;2023-04-05T23:38:23;6.00;47.10
17659;DHT22;8948;51.534;8.262;2023-04-05T23:43:24;6.00;47.50
17659;DHT22;8948;51.534;8.262;2023-04-05T23:48:25;5.90;47.50
17659;DHT22;8948;51.534;8.262;2023-04-05T23:53:26;5.90;47.60
17659;DHT22;8948;51.534;8.262;2023-04-05T23:58:27;5.80;47.70
